• Join FlightAware (Why Join?)
  • Login
  • US Flag 
09:30PM EDT


 

Airport Tracker/Info


-or-


 

Live Flight TrackerFlight Track Log ✈ SWA4204 ✈ 02-Dec-2013 ✈ KLAS - KSMF

Flight Track Log - Related Links

Times and Time Zones

All times are in EST time to prevent confusion due to time zone crossing. See the SWA4204 flight status page for this flight to view local times or setup timezone preferences in your user account.

Time Position Orientation Groundspeed Altitude Reporting Facility
EST Latitude Longitude Course Direction KTS MPH feet Rate Location/Type
02:27AM 36.0761 -115.1683 257° West 170 196 3,400  Level Los Angeles Center
02:28AM 36.0581 -115.2644 257° West 257 296 6,200 2,340 Climbing Los Angeles Center
02:29AM 36.0264 -115.2736 193° South 259 298 7,800 3,420 Climbing Los Angeles Center
02:29AM 35.9867 -115.2933 202° Southwest 269 310 9,700 2,820 Climbing Los Angeles Center
02:30AM 35.9622 -115.3231 225° Southwest 288 331 10,700 2,820 Climbing Los Angeles Center
02:31AM 35.9506 -115.4333 263° West 327 376 13,800 3,480 Climbing Los Angeles Center
02:32AM 35.9383 -115.5486 263° West 336 387 17,800 3,660 Climbing Los Angeles Center
02:33AM 35.9264 -115.6667 263° West 346 398 21,200 3,060 Climbing Los Angeles Center
02:34AM 35.9133 -115.7967 263° West 359 413 24,100 2,340 Climbing Los Angeles Center
02:35AM 35.9033 -115.9053 264° West 370 426 26,000 1,920 Climbing Los Angeles Center
02:36AM 35.9406 -116.0231 291° West 397 457 28,000 960 Climbing Los Angeles Center
02:37AM 36.0356 -116.1297 318° Northwest 399 459 28,000  Level Los Angeles Center
02:38AM 36.1186 -116.2269 317° Northwest 398 458 28,000  Level Los Angeles Center
02:39AM 36.1950 -116.3242 314° West 395 455 28,000  Level Los Angeles Center
02:40AM 36.2725 -116.4189 315° West 394 453 28,000  Level Los Angeles Center
02:41AM 36.3492 -116.5156 315° West 394 453 28,000  Level Los Angeles Center
02:42AM 36.4267 -116.6111 315° West 396 456 28,000  Level Los Angeles Center
02:43AM 36.5042 -116.7086 315° West 396 456 28,000  Level Los Angeles Center
02:45AM 36.6581 -116.9025 315° West 395 455 28,000  Level Los Angeles Center
02:46AM 36.7361 -117.0000 315° West 396 456 28,000  Level Los Angeles Center
02:47AM 36.8128 -117.0994 314° West 395 455 28,000  Level Los Angeles Center
02:48AM 36.8892 -117.1986 314° West 394 453 28,000  Level Los Angeles Center
02:49AM 36.9650 -117.2964 314° West 392 451 28,000  Level Los Angeles Center
02:50AM 37.0414 -117.3925 315° West 390 449 28,000  Level Los Angeles Center
02:51AM 37.1172 -117.4886 315° West 387 445 28,000  Level Los Angeles Center
02:52AM 37.1925 -117.5872 314° West 389 448 28,000  Level Los Angeles Center
02:53AM 37.2669 -117.6831 314° West 384 442 28,000  Level Los Angeles Center
02:54AM 37.3406 -117.7792 314° West 380 437 28,000  Level Los Angeles Center
02:55AM 37.4142 -117.8742 314° West 378 435 28,000  Level Los Angeles Center
02:56AM 37.4886 -117.9714 314° West 382 440 28,000  Level Los Angeles Center
02:57AM 37.5622 -118.0669 314° West 380 437 28,000  Level Los Angeles Center
02:58AM 37.6361 -118.1639 314° West 381 438 28,000  Level Los Angeles Center
02:59AM 37.7100 -118.2614 314° West 383 441 28,000  Level Los Angeles Center
03:00AM 37.7911 -118.3731 313° West 362 417 28,000  Level Oakland Center
03:01AM 37.8614 -118.4656 314° West 361 415 28,000  Level Oakland Center
03:02AM 37.9344 -118.5631 314° West 374 430 28,000  Level Oakland Center
03:03AM 38.0050 -118.6575 313° West 370 426 28,000  Level Oakland Center
03:04AM 38.0547 -118.7686 300° West 363 418 28,000  Level Oakland Center
03:05AM 38.1033 -118.8831 298° West 365 420 28,000  Level Oakland Center
03:06AM 38.1572 -119.0033 300° West 367 422 28,000  Level Oakland Center
03:07AM 38.2064 -119.1189 298° West 369 425 28,000 -600 Level Oakland Center
03:08AM 38.2542 -119.2303 299° West 360 414 26,900 -1,140 Descending Oakland Center
03:09AM 38.3008 -119.3389 299° West 351 404 25,800 -1,020 Descending Oakland Center
03:10AM 38.3453 -119.4450 298° West 341 392 24,900 -1,080 Descending Oakland Center
03:11AM 38.3958 -119.5619 299° West 344 396 23,700 -1,080 Descending Oakland Center
03:12AM 38.4364 -119.6575 298° West 340 391 22,800 -960 Descending Oakland Center
03:13AM 38.4792 -119.7583 298° West 326 375 21,800 -1,140 Descending Oakland Center
03:14AM 38.5225 -119.8681 297° West 319 367 20,600 -1,140 Descending Oakland Center
03:15AM 38.5653 -119.9703 298° West 325 374 19,600 -1,020 Descending Oakland Center
03:16AM 38.6061 -120.0689 298° West 318 366 18,600 -960 Descending Oakland Center
03:17AM 38.6478 -120.1675 298° West 316 364 17,700 -1,020 Descending Oakland Center
03:18AM 38.6892 -120.2678 298° West 319 367 16,600 -1,080 Descending Oakland Center
03:19AM 38.7072 -120.3731 282° West 306 352 15,600 -960 Descending Oakland Center
03:20AM 38.7150 -120.4836 275° West 310 357 14,700 -960 Descending Oakland Center
03:21AM 38.7244 -120.5914 276° West 306 352 13,700 -1,020 Descending Oakland Center
03:22AM 38.7319 -120.6956 275° West 296 341 12,700 -1,020 Descending Oakland Center
03:23AM 38.7406 -120.8014 276° West 298 343 11,700 -1,140 Descending Oakland Center
03:24AM 38.7481 -120.9075 275° West 300 345 10,500 -960 Descending Oakland Center
03:25AM 38.7547 -121.0019 275° West 269 310 9,800 -1,320 Descending Oakland Center
03:26AM 38.7611 -121.0928 275° West 258 297 7,900 -1,680 Descending Oakland Center
03:27AM 38.7678 -121.1833 275° West 259 298 6,500 -1,440 Descending Oakland Center
03:28AM 38.7744 -121.2708 276° West 251 289 5,000 -1,500 Descending Oakland Center
03:29AM 38.7806 -121.3597 275° West 252 290 3,500 -1,320 Descending Oakland Center
03:30AM 38.7833 -121.4167 274° West 234 269 3,000 -720 Descending Northern Cal TRACON
03:31AM 38.7833 -121.5000 270° West 203 234 2,500 -840 Descending Northern Cal TRACON
03:32AM 38.7667 -121.5500 247° West 171 197 1,500 -900 Descending Northern Cal TRACON
03:33AM 38.7500 -121.6000 247° West 136 157 900 -600 Descending Northern Cal TRACON
03:34AM 38.7167 -121.6000 180° South 128 147 500 -480 Descending Northern Cal TRACON
03:36AM 38.6954 -121.5908 218° Southwest  Level Estimated
03:43AM 38.6954 -121.5908 218° Southwest  Level Estimated